Pagina principală
METAR-TAF:

METAR-TAF

Aeroporturi :

North Platte, Nebraska, Statele Unite ale Americii

Latitudine: 41-07-19N, longitudine: 100-40-06W, elevație: 846 m

Observații meteo curente

Raportul a fost făcut în urmă cu 24 de minute, la 15:53 UTC
Vânt 3 kt din direcții variabile
Temperatură 23°C
Umiditate 33%
Presiune 1023 hPa
Vizibilitate: 16.1 km
Cer senin

METAR: KLBF 281553Z AUTO VRB03KT 10SM CLR 23/06 A3021 RMK AO2 SLP215 T02280061

Ora: 11:17 (16:17 UTC)

Prognoză

Raportul a fost făcut în urmă cu 4 ore și 57 de minute, la 11:20 UTC
Prognoză valabilă de la 28 ora 12 UTC la 29 ora 12 UTC
Vânt 6 kt din direcții variabile
Vizibilitate: 10 km
Nori puțini la o înălțime de 25000 picior
De la 29 ora 0000 UTC
Vânt 7 kt de la Est
Vizibilitate: 10 km
Nori puțini la o înălțime de 25000 picior

TAF: KLBF 281120Z 2812/2912 VRB06KT P6SM FEW250 FM290000 10007KT P6SM FEW250

Observații și prognoze meteo pentru peste 4.000 de aeroporturi (rapoarte METAR și TAF).

Stațiile disponibile sunt reprezentate pe hartă prin puncte galbene și roșii.

Țineți indicatorul mouse-ului pe punctul dorit pentru a vedea denumirea stației.

Apoi, faceți clic pentru a vedea observațiile și prognozele meteorologice.

Pentru a schimba harta: Pentru mărire, faceți clic pe butoanele verzi cu cruce neagră; pentru micșorare, pe butonul verde cu o liniuță; pentru hărți învecinate, pe săgețile verzi.


METAR-TAF: